Time,TemperatureF,DewpointF,PressureIn,WindDirection,WindDirectionDegrees,WindSpeedMPH,WindSpeedGustMPH,Humidity,HourlyPrecipIn,Conditions,Clouds,dailyrainin,SolarRadiationWatts/m^2,SoftwareType,DateUTC
2013-07-13 00:01:00,54.0,32.0,-100.00,NW,313,2.0,3.0,43,0.00,,,0.00,12.000000,,2013-07-13 08:01:00,
2013-07-13 00:11:00,54.0,32.0,-100.00,NW,313,2.0,3.0,43,0.00,,,0.00,12.000000,,2013-07-13 08:11:00,
2013-07-13 00:22:00,54.0,32.0,-100.00,NW,313,2.0,3.0,43,0.00,,,0.00,12.000000,,2013-07-13 08:22:00,
2013-07-13 00:52:00,54.0,33.0,-100.00,WSW,238,1.0,3.0,44,0.00,,,0.00,1.000000,,2013-07-13 08:52:00,
2013-07-13 01:02:00,54.0,33.0,-100.00,WSW,238,1.0,3.0,44,0.00,,,0.00,1.000000,,2013-07-13 09:02:00,
2013-07-13 01:11:00,54.0,33.0,-100.00,WSW,238,1.0,3.0,44,0.00,,,0.00,1.000000,,2013-07-13 09:11:00,
2013-07-13 01:22:00,54.0,33.0,-100.00,WSW,238,1.0,3.0,44,0.00,,,0.00,1.000000,,2013-07-13 09:22:00,
2013-07-13 01:32:00,54.0,33.0,-100.00,WSW,238,1.0,3.0,44,0.00,,,0.00,1.000000,,2013-07-13 09:32:00,
2013-07-13 02:01:00,53.0,31.0,-100.00,SSW,209,1.0,2.0,43,0.00,,,0.00,0.000000,,2013-07-13 10:01:00,
2013-07-13 02:11:00,53.0,31.0,-100.00,SSW,209,1.0,2.0,43,0.00,,,0.00,0.000000,,2013-07-13 10:11:00,
2013-07-13 02:22:00,53.0,31.0,-100.00,SSW,209,1.0,2.0,43,0.00,,,0.00,0.000000,,2013-07-13 10:22:00,
2013-07-13 02:32:00,53.0,31.0,-100.00,SSW,209,1.0,2.0,43,0.00,,,0.00,0.000000,,2013-07-13 10:32:00,
2013-07-13 03:02:00,53.0,33.0,-100.00,WNW,289,0.0,2.0,46,0.00,,,0.00,0.000000,,2013-07-13 11:02:00,
2013-07-13 03:11:00,53.0,33.0,-100.00,WNW,289,0.0,2.0,46,0.00,,,0.00,0.000000,,2013-07-13 11:11:00,
2013-07-13 03:22:00,53.0,33.0,-100.00,WNW,289,0.0,2.0,46,0.00,,,0.00,0.000000,,2013-07-13 11:22:00,
2013-07-13 03:32:00,53.0,33.0,-100.00,WNW,289,0.0,2.0,46,0.00,,,0.00,0.000000,,2013-07-13 11:32:00,
2013-07-13 03:52:00,53.0,33.0,-100.00,NNE,31,2.0,4.0,46,0.00,,,0.00,0.000000,,2013-07-13 11:52:00,
2013-07-13 04:02:00,53.0,33.0,-100.00,NNE,31,2.0,4.0,46,0.00,,,0.00,0.000000,,2013-07-13 12:02:00,
2013-07-13 04:12:00,53.0,33.0,-100.00,NNE,31,2.0,4.0,46,0.00,,,0.00,0.000000,,2013-07-13 12:12:00,
2013-07-13 04:22:00,53.0,33.0,-100.00,NNE,31,2.0,4.0,46,0.00,,,0.00,0.000000,,2013-07-13 12:22:00,
2013-07-13 04:32:00,53.0,33.0,-100.00,NNE,31,2.0,4.0,46,0.00,,,0.00,0.000000,,2013-07-13 12:32:00,
2013-07-13 05:01:00,53.0,33.0,-100.00,WNW,296,1.0,3.0,47,0.00,,,0.00,1.000000,,2013-07-13 13:01:00,
2013-07-13 05:11:00,53.0,33.0,-100.00,WNW,296,1.0,3.0,47,0.00,,,0.00,1.000000,,2013-07-13 13:11:00,
2013-07-13 05:22:00,53.0,33.0,-100.00,WNW,296,1.0,3.0,47,0.00,,,0.00,1.000000,,2013-07-13 13:22:00,
2013-07-13 05:32:00,53.0,33.0,-100.00,WNW,296,1.0,3.0,47,0.00,,,0.00,1.000000,,2013-07-13 13:32:00,
2013-07-13 06:02:00,52.0,32.0,-100.00,SW,218,0.0,2.0,47,0.00,,,0.00,10.000000,,2013-07-13 14:02:00,
2013-07-13 06:11:00,52.0,32.0,-100.00,SW,218,0.0,2.0,47,0.00,,,0.00,10.000000,,2013-07-13 14:11:00,
2013-07-13 06:22:00,52.0,32.0,-100.00,SW,218,0.0,2.0,47,0.00,,,0.00,10.000000,,2013-07-13 14:22:00,
2013-07-13 06:32:00,52.0,32.0,-100.00,SW,218,0.0,2.0,47,0.00,,,0.00,10.000000,,2013-07-13 14:32:00,
2013-07-13 06:33:00,51.0,34.0,-100.00,SW,235,1.0,4.0,52,0.00,,,0.00,17.000000,,2013-07-13 14:33:00,
2013-07-13 06:53:00,51.0,34.0,-100.00,SW,235,1.0,4.0,52,0.00,,,0.00,17.000000,,2013-07-13 14:53:00,
2013-07-13 07:02:00,51.0,34.0,-100.00,SW,235,1.0,4.0,52,0.00,,,0.00,17.000000,,2013-07-13 15:02:00,
2013-07-13 07:12:00,51.0,34.0,-100.00,SW,235,1.0,4.0,52,0.00,,,0.00,17.000000,,2013-07-13 15:12:00,
2013-07-13 07:22:00,51.0,34.0,-100.00,SW,235,1.0,4.0,52,0.00,,,0.00,17.000000,,2013-07-13 15:22:00,
2013-07-13 08:02:00,51.0,31.0,-100.00,North,3,3.0,6.0,47,0.00,,,0.00,108.000000,,2013-07-13 16:02:00,
2013-07-13 08:11:00,51.0,31.0,-100.00,North,3,3.0,6.0,47,0.00,,,0.00,108.000000,,2013-07-13 16:11:00,
2013-07-13 08:22:00,51.0,31.0,-100.00,North,3,3.0,6.0,47,0.00,,,0.00,108.000000,,2013-07-13 16:22:00,
2013-07-13 08:32:00,51.0,31.0,-100.00,North,3,3.0,6.0,47,0.00,,,0.00,108.000000,,2013-07-13 16:32:00,
2013-07-13 08:33:00,52.0,34.0,-100.00,SW,219,1.0,3.0,50,0.00,,,0.00,284.000000,,2013-07-13 16:33:00,
2013-07-13 08:53:00,52.0,34.0,-100.00,SW,219,1.0,3.0,50,0.00,,,0.00,284.000000,,2013-07-13 16:53:00,
2013-07-13 09:01:00,52.0,34.0,-100.00,SW,219,1.0,3.0,50,0.00,,,0.00,284.000000,,2013-07-13 17:01:00,
2013-07-13 09:11:00,52.0,34.0,-100.00,SW,219,1.0,3.0,50,0.00,,,0.00,284.000000,,2013-07-13 17:11:00,
2013-07-13 09:22:00,52.0,34.0,-100.00,SW,219,1.0,3.0,50,0.00,,,0.00,284.000000,,2013-07-13 17:22:00,
2013-07-13 10:01:00,54.0,36.0,-100.00,ESE,118,1.0,4.0,50,0.00,,,0.00,422.000000,,2013-07-13 18:01:00,
2013-07-13 10:11:00,54.0,36.0,-100.00,ESE,118,1.0,4.0,50,0.00,,,0.00,422.000000,,2013-07-13 18:11:00,
2013-07-13 10:21:00,54.0,36.0,-100.00,ESE,118,1.0,4.0,50,0.00,,,0.00,422.000000,,2013-07-13 18:21:00,
2013-07-13 10:32:00,54.0,36.0,-100.00,ESE,118,1.0,4.0,50,0.00,,,0.00,422.000000,,2013-07-13 18:32:00,
2013-07-13 11:02:00,54.0,36.0,-100.00,ENE,68,3.0,5.0,51,0.00,,,0.00,556.000000,,2013-07-13 19:02:00,
2013-07-13 11:11:00,54.0,36.0,-100.00,ENE,68,3.0,5.0,51,0.00,,,0.00,556.000000,,2013-07-13 19:11:00,
2013-07-13 11:22:00,54.0,36.0,-100.00,ENE,68,3.0,5.0,51,0.00,,,0.00,556.000000,,2013-07-13 19:22:00,
2013-07-13 11:32:00,54.0,36.0,-100.00,ENE,68,3.0,5.0,51,0.00,,,0.00,556.000000,,2013-07-13 19:32:00,
2013-07-13 11:33:00,56.0,36.0,-100.00,ESE,116,1.0,3.0,46,0.00,,,0.00,678.000000,,2013-07-13 19:33:00,
2013-07-13 11:52:00,56.0,36.0,-100.00,ESE,116,1.0,3.0,46,0.00,,,0.00,678.000000,,2013-07-13 19:52:00,
2013-07-13 12:01:00,56.0,36.0,-100.00,ESE,116,1.0,3.0,46,0.00,,,0.00,678.000000,,2013-07-13 20:01:00,
2013-07-13 12:11:00,56.0,36.0,-100.00,ESE,116,1.0,3.0,46,0.00,,,0.00,678.000000,,2013-07-13 20:11:00,
2013-07-13 12:22:00,56.0,36.0,-100.00,ESE,116,1.0,3.0,46,0.00,,,0.00,678.000000,,2013-07-13 20:22:00,
2013-07-13 12:53:00,57.0,38.0,-100.00,South,171,2.0,3.0,48,0.00,,,0.00,779.000000,,2013-07-13 20:53:00,
2013-07-13 13:02:00,57.0,38.0,-100.00,South,171,2.0,3.0,48,0.00,,,0.00,779.000000,,2013-07-13 21:02:00,
2013-07-13 13:12:00,57.0,38.0,-100.00,South,171,2.0,3.0,48,0.00,,,0.00,779.000000,,2013-07-13 21:12:00,
2013-07-13 13:22:00,57.0,38.0,-100.00,South,171,2.0,3.0,48,0.00,,,0.00,779.000000,,2013-07-13 21:22:00,
2013-07-13 13:32:00,57.0,38.0,-100.00,South,171,2.0,3.0,48,0.00,,,0.00,779.000000,,2013-07-13 21:32:00,
2013-07-13 13:53:00,58.0,34.0,-100.00,SSE,166,2.0,4.0,41,0.00,,,0.00,747.000000,,2013-07-13 21:53:00,
2013-07-13 14:01:00,58.0,34.0,-100.00,SSE,166,2.0,4.0,41,0.00,,,0.00,747.000000,,2013-07-13 22:01:00,
2013-07-13 14:11:00,58.0,34.0,-100.00,SSE,166,2.0,4.0,41,0.00,,,0.00,747.000000,,2013-07-13 22:11:00,
2013-07-13 14:22:00,58.0,34.0,-100.00,SSE,166,2.0,4.0,41,0.00,,,0.00,747.000000,,2013-07-13 22:22:00,
2013-07-13 14:32:00,58.0,34.0,-100.00,SSE,166,2.0,4.0,41,0.00,,,0.00,747.000000,,2013-07-13 22:32:00,
2013-07-13 14:53:00,59.0,37.0,-100.00,South,175,2.0,4.0,44,0.00,,,0.00,831.000000,,2013-07-13 22:53:00,
2013-07-13 15:01:00,59.0,37.0,-100.00,South,175,2.0,4.0,44,0.00,,,0.00,831.000000,,2013-07-13 23:01:00,
2013-07-13 15:11:00,59.0,37.0,-100.00,South,175,2.0,4.0,44,0.00,,,0.00,831.000000,,2013-07-13 23:11:00,
2013-07-13 15:22:00,59.0,37.0,-100.00,South,175,2.0,4.0,44,0.00,,,0.00,831.000000,,2013-07-13 23:22:00,
2013-07-13 15:32:00,59.0,37.0,-100.00,South,175,2.0,4.0,44,0.00,,,0.00,831.000000,,2013-07-13 23:32:00,
2013-07-13 15:33:00,60.0,40.0,-100.00,West,270,3.0,6.0,47,0.00,,,0.00,822.000000,,2013-07-13 23:33:00,
2013-07-13 15:53:00,60.0,40.0,-100.00,West,270,3.0,6.0,47,0.00,,,0.00,822.000000,,2013-07-13 23:53:00,
2013-07-13 16:01:00,60.0,40.0,-100.00,West,270,3.0,6.0,47,0.00,,,0.00,822.000000,,2013-07-14 00:01:00,
2013-07-13 16:11:00,60.0,40.0,-100.00,West,270,3.0,6.0,47,0.00,,,0.00,822.000000,,2013-07-14 00:11:00,
2013-07-13 16:21:00,60.0,40.0,-100.00,West,270,3.0,6.0,47,0.00,,,0.00,822.000000,,2013-07-14 00:21:00,
2013-07-13 17:01:00,60.0,40.0,-100.00,West,279,5.0,7.0,47,0.00,,,0.00,762.000000,,2013-07-14 01:01:00,
2013-07-13 17:11:00,60.0,40.0,-100.00,West,279,5.0,7.0,47,0.00,,,0.00,762.000000,,2013-07-14 01:11:00,
2013-07-13 17:22:00,60.0,40.0,-100.00,West,279,5.0,7.0,47,0.00,,,0.00,762.000000,,2013-07-14 01:22:00,
2013-07-13 17:32:00,60.0,40.0,-100.00,West,279,5.0,7.0,47,0.00,,,0.00,762.000000,,2013-07-14 01:32:00,
2013-07-13 17:52:00,60.0,39.0,-100.00,West,272,6.0,9.0,45,0.00,,,0.00,658.000000,,2013-07-14 01:52:00,
2013-07-13 18:01:00,60.0,39.0,-100.00,West,272,6.0,9.0,45,0.00,,,0.00,658.000000,,2013-07-14 02:01:00,
2013-07-13 18:11:00,60.0,39.0,-100.00,West,272,6.0,9.0,45,0.00,,,0.00,658.000000,,2013-07-14 02:11:00,
2013-07-13 18:22:00,60.0,39.0,-100.00,West,272,6.0,9.0,45,0.00,,,0.00,658.000000,,2013-07-14 02:22:00,
2013-07-13 18:32:00,60.0,39.0,-100.00,West,272,6.0,9.0,45,0.00,,,0.00,658.000000,,2013-07-14 02:32:00,
2013-07-13 18:53:00,60.0,36.0,-100.00,WNW,286,4.0,8.0,40,0.00,,,0.00,539.000000,,2013-07-14 02:53:00,
2013-07-13 19:01:00,60.0,36.0,-100.00,WNW,286,4.0,8.0,40,0.00,,,0.00,539.000000,,2013-07-14 03:01:00,
2013-07-13 19:11:00,60.0,36.0,-100.00,WNW,286,4.0,8.0,40,0.00,,,0.00,539.000000,,2013-07-14 03:11:00,
2013-07-13 19:22:00,60.0,36.0,-100.00,WNW,286,4.0,8.0,40,0.00,,,0.00,539.000000,,2013-07-14 03:22:00,
2013-07-13 19:32:00,60.0,36.0,-100.00,WNW,286,4.0,8.0,40,0.00,,,0.00,539.000000,,2013-07-14 03:32:00,
2013-07-13 19:53:00,60.0,36.0,-100.00,WNW,284,3.0,8.0,40,0.00,,,0.00,410.000000,,2013-07-14 03:53:00,
2013-07-13 20:02:00,60.0,36.0,-100.00,WNW,284,3.0,8.0,40,0.00,,,0.00,410.000000,,2013-07-14 04:02:00,
2013-07-13 20:11:00,60.0,36.0,-100.00,WNW,284,3.0,8.0,40,0.00,,,0.00,410.000000,,2013-07-14 04:11:00,
2013-07-13 20:22:00,60.0,36.0,-100.00,WNW,284,3.0,8.0,40,0.00,,,0.00,410.000000,,2013-07-14 04:22:00,
2013-07-13 20:32:00,60.0,36.0,-100.00,WNW,284,3.0,8.0,40,0.00,,,0.00,410.000000,,2013-07-14 04:32:00,
2013-07-13 21:02:00,60.0,35.0,-100.00,NNE,22,0.0,2.0,39,0.00,,,0.00,280.000000,,2013-07-14 05:02:00,
2013-07-13 21:11:00,60.0,35.0,-100.00,NNE,22,0.0,2.0,39,0.00,,,0.00,280.000000,,2013-07-14 05:11:00,
2013-07-13 21:22:00,60.0,35.0,-100.00,NNE,22,0.0,2.0,39,0.00,,,0.00,280.000000,,2013-07-14 05:22:00,
2013-07-13 21:32:00,60.0,35.0,-100.00,NNE,22,0.0,2.0,39,0.00,,,0.00,280.000000,,2013-07-14 05:32:00,
2013-07-13 21:53:00,59.0,39.0,-100.00,NNW,338,1.0,4.0,47,0.00,,,0.00,158.000000,,2013-07-14 05:53:00,
2013-07-13 22:01:00,59.0,39.0,-100.00,NNW,338,1.0,4.0,47,0.00,,,0.00,158.000000,,2013-07-14 06:01:00,
2013-07-13 22:11:00,59.0,39.0,-100.00,NNW,338,1.0,4.0,47,0.00,,,0.00,158.000000,,2013-07-14 06:11:00,
2013-07-13 22:22:00,59.0,39.0,-100.00,NNW,338,1.0,4.0,47,0.00,,,0.00,158.000000,,2013-07-14 06:22:00,
2013-07-13 22:32:00,59.0,39.0,-100.00,NNW,338,1.0,4.0,47,0.00,,,0.00,158.000000,,2013-07-14 06:32:00,
2013-07-13 22:53:00,56.0,38.0,-100.00,SE,126,1.0,2.0,51,0.00,,,0.00,25.000000,,2013-07-14 06:53:00,
2013-07-13 23:02:00,56.0,38.0,-100.00,SE,126,1.0,2.0,51,0.00,,,0.00,25.000000,,2013-07-14 07:02:00,
2013-07-13 23:11:00,56.0,38.0,-100.00,SE,126,1.0,2.0,51,0.00,,,0.00,25.000000,,2013-07-14 07:11:00,
2013-07-13 23:22:00,56.0,38.0,-100.00,SE,126,1.0,2.0,51,0.00,,,0.00,25.000000,,2013-07-14 07:22:00,
2013-07-13 23:32:00,56.0,38.0,-100.00,SE,126,1.0,2.0,51,0.00,,,0.00,25.000000,,2013-07-14 07:32:00,